KPTS

Details ICAO KPTS
Name ATKINSON MUNI
Region United States
Timezone America/Chicago (UTC-6.0)
Plans Departing 2
Arriving 2
Stats Elevation 950 ft / 290 m (AMSL)
Location 37.448005° -94.731475°
Runways 3
Magnetic Variation 1.841° E
Sunrise 2017-12-13 13:26:25 UTC / 2017-12-13 07:26:25 Local
Sunset 2017-12-13 23:02:55 UTC / 2017-12-13 17:02:55 Local
Advertisement - Login to hide

Runways

ID Width Length Bearing (true) Bearing (mag) Surface Threshold Offset Overrun Length
03 75 ft / 23 m 4,002 ft / 1,220 m 39.71° 37.87° Asphalt 0 ft / 0 m 0 ft / 0 m
10 100 ft / 30 m 3,002 ft / 915 m 109.96° 108.12° Asphalt 0 ft / 0 m 0 ft / 0 m
16 100 ft / 30 m 5,511 ft / 1,680 m 169.89° 168.05° Asphalt 0 ft / 0 m 0 ft / 0 m
21 75 ft / 23 m 4,002 ft / 1,220 m 219.71° 217.87° Asphalt 0 ft / 0 m 0 ft / 0 m
28 100 ft / 30 m 3,002 ft / 915 m 289.96° 288.12° Asphalt 0 ft / 0 m 0 ft / 0 m
34 100 ft / 30 m 5,511 ft / 1,680 m 349.89° 348.05° Asphalt 0 ft / 0 m 0 ft / 0 m

Map

Weather


0- 5 10 15 20 25 30 35+ Temperature / ° C

Clouds and Precipitation
Forecast for 2017-12-13 12:00 UTC. Updated 2 hours ago

Ground ~20,000 ft ~40,000 ft Winds

METAR

KPTS 130915Z AUTO 20009KT 10SM CLR 02/M03 A2991 RMK AO2 T00221028

TAF

Not found

Frequencies

Recorded 118.77 MHz AWOS 3
Unicom 123.00 MHz CTAF/UNICOM
Warning: Do not use this data for real-world aviation or navigation. No guarantee of current accuracy is given.